Sacramento, CA (95827)

10:41 PM PDT on August 27, 2015 (GMT -0700)
MesoWest | | Change Station
CLOSE
Current Station
Personal Weather Station
Location: Sacramento, CA
Elevation: 75 ft
Nearby Weather Stations

Elev 75 ft 38.55 °N, 121.34 °W | Updated 31 minutes ago

Scattered Clouds
Scattered Clouds
76.0 °F
Feels Like 76.0 °F
N
0.0
Wind Variable Wind from North
Gusts 0.0 mph

Today
High -- | Low -- °F
--% Chance of Precip.
Yesterday
High -- | Low -- °F
Precip. -- in
6:30 AM 7:42 PM
Waxing Gibbous, 96% visible
Pressure 29.92 in
Visibility 10.0 miles
Clouds Scattered Clouds 20000 ft
Dew Point Not available.
Humidity Not available.
Rainfall in
Snow Depth Not available.
UV 0 out of 12
Pollen 7.40 out of 12
Air Quality Not available.
Flu Activity Not available.
METAR KMHR 280445Z 19003KT 10SM SCT200 26/10 A2992
Pressure 29.92 in
Visibility 10.0 miles
Clouds Scattered Clouds 20000 ft
Dew Point Not available.
Humidity Not available.
Rainfall in
Snow Depth Not available.
UV 0 out of 12
Pollen 7.40 out of 12
Air Quality Not available.
Flu Activity Not available.
METAR KMHR 280445Z 19003KT 10SM SCT200 26/10 A2992

10-Day Weather Forecast

×

Almanac

Astronomy

Aug. 27, 2015 Rise Set
Actual Time
Civil Twilight
Nautical Twilight
Astronomical Twilight
Moon
Length of Visible Light
Length of Day
Tomorrow will be .
, % of the Moon is Illuminated

Today's Extremes

State Highs State Lows

Community

WunderPhotos

Upload Photos

1,850,341 photos uploaded!

WunderBlogs® & News

Nearby

Air Quality

  Air Quality AQ Index Pollutant
Not available.

Snow Depth

Station Depth Elevation

Earthquake Activity

City Distance Mag. Time & Date
Minimum magnitude displayed is 2.5.

Coastal Water Temperatures

Place Temperature

Stations

Nearby Weather Stations

Station Location Temp. Windchill Dew Point Humidity Wind Precip. Elev Updated Type